AVV weather

Avalon Airport
Melbourne, Victoria, Australia

Public forecast

Using degrees Celsius for public forecast. Weather courtesy of forecast.io.

METAR (pilot weather report)

Retrieved 2018/06/23 13:30 UTC (0 seconds ago):

YMAV 231330Z AUTO 28007KT 9999 // OVC045 08/08 Q1029 RF00.0/000.0

TAF (pilot weather forecast)

Forecast is more than 12 hours old.

Retrieved 2018/06/22 00:00 UTC (2 days ago):

TAF YMAV 222336Z 2300/2324 30008KT 9999 -SHRA FEW015 BKN025 FM230100 26012KT 9999 -SHRA FEW010 BKN020 FM230600 26008KT 9999 -SHRA FEW020 BKN035 FM231200 24010KT 9999 BKN030 INTER 2300/2306 5000 SHRA BKN012 INTER 2306/2308 5000 SHRA BKN020